Lesage, WV (25537)

10:45 PM EDT on October 01, 2014 (GMT -0400)
East Pea Ridge | Change Station
CLOSE
Current Station
Personal Weather Station
Location: Huntington, WV
Elevation: 625 ft
Nearby Weather Stations

Elev 625 ft 38.42 °N, 82.31 °W | Updated 3 seconds ago

Clear
Clear
60.2 °F
Feels Like 60.2 °F
N
0.0
Wind Variable Wind from North
Gusts 0.0 mph

Today
High -- | Low -- °F
--% Chance of Precip.
Yesterday
High -- | Low -- °F
Precip. -- in
7:24 AM 7:12 PM
First Quarter, 53% visible
Pressure 30.02 in
Visibility 6.0 miles
Clouds Clear
Dew Point 59 °F
Humidity 96%
Rainfall 0.00 in
Snow Depth Not available.
UV 0 out of 12
Pollen 3.60 out of 12
Air Quality Not available.
Flu Activity Not available.
METAR KHTS 020151Z 11003KT 6SM BR CLR 17/16 A3003 RMK AO2 SLP165 T01720156

More Conditions Fewer Conditions

Pressure 30.02 in
Visibility 6.0 miles
Clouds Clear
Dew Point 59 °F
Humidity 96%
Rainfall 0.00 in
Snow Depth Not available.
UV 0 out of 12
Pollen 3.60 out of 12
Air Quality Not available.
Flu Activity Not available.
METAR KHTS 020151Z 11003KT 6SM BR CLR 17/16 A3003 RMK AO2 SLP165 T01720156

More Conditions Fewer Conditions

10-Day Weather Forecast

Almanac

Astronomy

Oct. 01, 2014 Rise Set
Actual Time 7:24 AM EDT 7:12 PM EDT
Civil Twilight 6:58 AM EDT 7:38 PM EDT
Nautical Twilight 6:27 AM EDT 8:09 PM EDT
Astronomical Twilight 5:56 AM EDT 8:40 PM EDT
Moon 2:21 PM EDT (10/1) No Moon Set
Length of Visible Light 12h 39m
Length of Day
11h 47m
Tomorrow will be 2m 29s shorter.
First Quarter, 53% of the Moon is Illuminated
Today
First Quarter
Oct 8
Full
Oct 15
Last Quarter
Oct 23
New
Oct 30
First Quarter

Today's Extremes

State Highs State Lows

Community

WunderPhotos

Upload Photos

1,758,154 photos uploaded!

WunderBlogs® & News

Nearby

Snow Depth

Station Depth Elevation
No new snow has been reported.

Earthquake Activity

City Distance Mag. Time & Date
No recent earthquake activity has been reported nearby.
Minimum magnitude displayed is 2.5.

Coastal Water Temperatures

Place Temperature
No Stations Reporting

Nearby Weather Stations